Strona główna
METAR-TAF:

METAR-TAF

Lotnisko :

Port lotniczy Zagrzeb im. Franja Tuđmana

Zagrzeb, Chorwacja

Szerokość geograficzna: 45-44N, Długość geograficzna: 016-04E, wysokość: 106 m

Aktualna obserwacja pogody

Raport powstał 5 minut temu, godzina 22:30 UTC
Wiatr 1 kt z kierunków zmiennych
Temperatura 12°C
Wilgotność 82%
Ciśnienie 1022 hPa
Widzialność 10 km lub więcej
Zachmurzenie całkowite na wysokości 3600 ft

METAR: LDZA 222230Z VRB01KT 9999 OVC036 12/09 Q1022 NOSIG

czas: 00:35 (22:35 UTC)

Prognoza

Raport powstał 5 godziny i 10 minut temu, godzina 17:25 UTC
Prognoza ważna od 22 godzina 18 UTC do 23 godzina 18 UTC
Wiatr 2 kt z kierunków zmiennych
Widzialność 10 km lub więcej
Zachmurzenie całkowite na wysokości 4500 ft
Stopniowe zmiany
od 23 godzina 16 UTC do 23 godzina 18 UTC
Wiatr 6 kt od południowy zachód

TAF: LDZA 221725Z 2218/2318 VRB02KT 9999 OVC045 TX23/2315Z TN10/2305Z BECMG 2316/2318 23006KT

Obserwacja i prognoza pogody dla ponad 4000 lotnisk (raport METAR i TAF).

Dostępne stacje oznaczono żółtymi i czerwonymi punktami na mapie.

Najedź kursorem aby zobaczyć nazwę stacji.

Kliknij aby zobaczyć obserwacje i prognozy pogody.

Aby zmienić mapę: kliknij na zielony przycisk z czarnym krzyżykiem, aby powiększyć; na zielony przycisk z myślnikiem, aby pomniejszyć; na zielone strzałki, aby przejść do map sąsiednich.


METAR-TAF: